createdAt,value
2018-07-01T00:00:47.808Z,0.40
2018-07-01T00:03:16.745Z,0.40
2018-07-01T00:05:45.560Z,0.30
2018-07-01T00:08:14.484Z,0.33
2018-07-01T00:10:43.583Z,0.40
2018-07-01T00:13:12.630Z,0.50
2018-07-01T00:15:41.716Z,0.50
2018-07-01T00:18:10.539Z,0.40
2018-07-01T00:20:39.479Z,0.33
2018-07-01T00:23:08.531Z,0.40
2018-07-01T00:25:37.604Z,0.40
2018-07-01T00:28:06.652Z,0.40
2018-07-01T00:30:35.716Z,0.30
2018-07-01T00:33:04.767Z,0.30
2018-07-01T00:35:33.831Z,0.40
2018-07-01T00:38:02.896Z,0.40
2018-07-01T00:40:31.960Z,0.40
2018-07-01T00:43:00.790Z,0.33
2018-07-01T00:45:29.727Z,0.40
2018-07-01T00:47:58.780Z,0.40
2018-07-01T00:50:27.847Z,0.40
2018-07-01T00:52:56.901Z,0.33
2018-07-01T00:55:25.988Z,0.30
2018-07-01T00:57:55.048Z,0.40
2018-07-01T01:00:33.828Z,0.40
2018-07-01T01:03:03.760Z,0.30
2018-07-01T01:05:33.320Z,0.40
2018-07-01T01:08:02.375Z,0.40
2018-07-01T01:10:31.443Z,0.30
2018-07-01T01:13:00.483Z,0.40
2018-07-01T01:15:29.576Z,0.40
2018-07-01T01:17:58.626Z,0.40
2018-07-01T01:20:27.690Z,0.40
2018-07-01T01:22:56.731Z,0.40
2018-07-01T01:25:25.531Z,0.50
2018-07-01T01:27:54.239Z,0.27
2018-07-01T01:30:22.911Z,0.40
2018-07-01T01:32:51.848Z,0.40
2018-07-01T01:35:20.895Z,0.40
2018-07-01T01:37:49.739Z,0.40
2018-07-01T01:40:21.467Z,0.40
2018-07-01T01:42:56.632Z,0.50
2018-07-01T01:45:30.080Z,0.50
2018-07-01T01:48:02.222Z,0.50
2018-07-01T01:50:38.772Z,0.50
2018-07-01T01:53:12.984Z,0.40
2018-07-01T01:55:46.992Z,0.50
2018-07-01T01:58:20.272Z,0.40
2018-07-01T02:00:55.707Z,0.40
2018-07-01T02:03:30.135Z,0.60
2018-07-01T02:06:11.349Z,0.40
2018-07-01T02:08:43.383Z,0.40
2018-07-01T02:11:12.447Z,0.40
2018-07-01T02:13:44.159Z,0.50
2018-07-01T02:16:19.716Z,0.50
2018-07-01T02:18:48.769Z,0.70
2018-07-01T02:21:17.839Z,0.60
2018-07-01T02:23:49.352Z,1.00
2018-07-01T02:26:18.295Z,0.40
2018-07-01T02:28:47.135Z,0.40
2018-07-01T02:31:16.084Z,0.40
2018-07-01T02:33:45.128Z,0.40
2018-07-01T02:36:14.204Z,0.50
2018-07-01T02:38:43.253Z,0.60
2018-07-01T02:41:12.321Z,0.40
2018-07-01T02:43:41.375Z,0.30
2018-07-01T02:46:10.439Z,0.40
2018-07-01T02:48:39.470Z,0.50
2018-07-01T02:51:08.532Z,0.60
2018-07-01T02:53:37.617Z,0.60
2018-07-01T02:56:06.631Z,0.40
2018-07-01T02:58:35.443Z,0.60
2018-07-01T03:01:04.152Z,0.40
2018-07-01T03:03:33.092Z,0.60
2018-07-01T03:06:02.128Z,0.60
2018-07-01T03:08:31.198Z,0.57
2018-07-01T03:11:00.236Z,0.60
2018-07-01T03:13:29.300Z,0.80
2018-07-01T03:15:58.355Z,0.60
2018-07-01T03:18:27.420Z,0.60
2018-07-01T03:20:56.472Z,0.50
2018-07-01T03:23:25.531Z,0.57
2018-07-01T03:25:55.680Z,0.50
2018-07-01T03:28:24.499Z,0.50
2018-07-01T03:30:53.167Z,0.60
2018-07-01T03:33:22.112Z,0.50
2018-07-01T03:35:51.164Z,0.40
2018-07-01T03:38:20.219Z,0.50
2018-07-01T03:40:49.268Z,0.47
2018-07-01T03:43:18.336Z,0.40
2018-07-01T03:45:47.166Z,0.73
2018-07-01T03:48:16.107Z,0.43
2018-07-01T03:50:44.899Z,0.40
2018-07-01T03:53:13.839Z,0.50
2018-07-01T03:55:42.888Z,0.60
2018-07-01T03:58:11.939Z,0.77
2018-07-01T04:00:40.979Z,0.40
2018-07-01T04:03:10.034Z,0.60
2018-07-01T04:05:39.075Z,0.40
2018-07-01T04:08:07.932Z,0.50
2018-07-01T04:10:36.925Z,0.40
2018-07-01T04:13:05.992Z,0.50
2018-07-01T04:15:35.067Z,0.40
2018-07-01T04:18:04.488Z,0.40
2018-07-01T04:20:33.527Z,0.50
2018-07-01T04:23:02.596Z,0.40
2018-07-01T04:25:31.648Z,0.50
2018-07-01T04:28:00.485Z,0.40
2018-07-01T04:30:29.404Z,0.40
2018-07-01T04:32:58.475Z,0.47
2018-07-01T04:35:27.520Z,0.40
2018-07-01T04:37:56.372Z,0.50
2018-07-01T04:40:25.291Z,0.33
2018-07-01T04:42:54.363Z,0.50
2018-07-01T04:45:23.407Z,0.33
2018-07-01T04:47:52.480Z,0.53
2018-07-01T04:50:21.278Z,0.40
2018-07-01T04:52:50.223Z,0.40
2018-07-01T04:55:19.335Z,0.40
2018-07-01T04:57:48.364Z,0.40
2018-07-01T05:00:17.163Z,0.40
2018-07-01T05:02:46.095Z,0.50
2018-07-01T05:05:15.168Z,0.40
2018-07-01T05:07:44.265Z,0.30
2018-07-01T05:10:13.316Z,0.40
2018-07-01T05:12:42.390Z,0.40
2018-07-01T05:15:11.463Z,0.40
2018-07-01T05:17:40.528Z,0.30
2018-07-01T05:20:09.610Z,0.30
2018-07-01T05:22:38.423Z,0.40
2018-07-01T05:25:07.695Z,0.30
2018-07-01T05:27:36.749Z,0.40
2018-07-01T05:30:06.160Z,0.30
2018-07-01T05:32:35.222Z,0.30
2018-07-01T05:35:04.407Z,0.50
2018-07-01T05:37:33.491Z,0.40
2018-07-01T05:40:02.540Z,0.27
2018-07-01T05:42:31.611Z,0.30
2018-07-01T05:45:00.660Z,0.40
2018-07-01T05:47:29.724Z,0.30
2018-07-01T05:49:58.795Z,0.30
2018-07-01T05:52:27.944Z,0.40
2018-07-01T05:54:57.080Z,0.40
2018-07-01T05:57:26.131Z,0.40
2018-07-01T05:59:55.208Z,0.30
2018-07-01T06:02:24.319Z,0.30
2018-07-01T06:04:53.392Z,0.30
2018-07-01T06:07:22.440Z,0.30
2018-07-01T06:09:51.255Z,0.33
2018-07-01T06:12:20.081Z,0.40
2018-07-01T06:14:49.111Z,0.40
2018-07-01T06:17:18.056Z,0.30
2018-07-01T06:19:47.083Z,0.23
2018-07-01T06:22:16.136Z,0.30
2018-07-01T06:24:45.196Z,0.30
2018-07-01T06:27:14.248Z,0.40
2018-07-01T06:29:43.320Z,0.30
2018-07-01T06:32:12.600Z,0.30
2018-07-01T06:34:41.687Z,0.40
2018-07-01T06:37:10.751Z,0.30
2018-07-01T06:39:39.819Z,0.30
2018-07-01T06:42:08.865Z,0.30
2018-07-01T06:44:37.683Z,0.30
2018-07-01T06:47:06.604Z,0.40
2018-07-01T06:49:35.676Z,0.40
2018-07-01T06:52:04.741Z,0.40
2018-07-01T06:54:33.551Z,0.30
2018-07-01T06:57:02.476Z,0.33
2018-07-01T06:59:31.548Z,0.30
2018-07-01T07:02:00.605Z,0.30
2018-07-01T07:04:29.465Z,0.20
2018-07-01T07:06:58.384Z,0.20
2018-07-01T07:09:28.165Z,0.30
2018-07-01T07:11:57.088Z,0.30
2018-07-01T07:14:26.169Z,0.33
2018-07-01T07:16:55.215Z,0.20
2018-07-01T07:19:24.284Z,0.20
2018-07-01T07:21:53.259Z,0.30
2018-07-01T07:24:22.240Z,0.50
2018-07-01T07:26:51.287Z,0.30
2018-07-01T07:29:21.038Z,0.20
2018-07-01T07:31:50.096Z,0.20
2018-07-01T07:34:19.191Z,0.33
2018-07-01T07:36:48.240Z,0.20
2018-07-01T07:39:17.320Z,0.20
2018-07-01T07:41:46.363Z,0.20
2018-07-01T07:44:15.436Z,0.20
2018-07-01T07:46:44.476Z,0.20
2018-07-01T07:49:13.536Z,0.30
2018-07-01T07:51:42.331Z,0.17
2018-07-01T07:54:11.277Z,0.10
2018-07-01T07:56:40.340Z,0.20
2018-07-01T07:59:09.515Z,0.10
2018-07-01T08:01:38.303Z,0.10
2018-07-01T08:04:07.286Z,0.10
2018-07-01T08:06:36.332Z,0.13
2018-07-01T08:09:07.368Z,0.20
2018-07-01T08:11:36.408Z,0.20
2018-07-01T08:14:05.500Z,0.20
2018-07-01T08:16:34.572Z,0.20
2018-07-01T08:19:03.643Z,0.10
2018-07-01T08:21:32.943Z,0.13
2018-07-01T08:24:02.000Z,0.20
2018-07-01T08:26:31.047Z,0.10
2018-07-01T08:29:00.164Z,0.20
2018-07-01T08:31:29.196Z,0.17
2018-07-01T08:33:58.011Z,0.20
2018-07-01T08:36:27.016Z,0.13
2018-07-01T08:38:56.080Z,0.10
2018-07-01T08:41:25.127Z,0.10
2018-07-01T08:43:54.220Z,0.10
2018-07-01T08:46:23.306Z,0.20
2018-07-01T08:48:52.460Z,0.10
2018-07-01T08:51:21.267Z,0.20
2018-07-01T08:53:49.939Z,0.10
2018-07-01T08:56:18.885Z,0.30
2018-07-01T08:58:47.931Z,0.33
2018-07-01T09:01:16.750Z,0.10
2018-07-01T09:03:45.675Z,0.20
2018-07-01T09:06:14.799Z,0.17
2018-07-01T09:08:43.608Z,0.20
2018-07-01T09:11:12.295Z,0.10
2018-07-01T09:13:41.212Z,0.10
2018-07-01T09:16:10.303Z,0.00
2018-07-01T09:18:39.349Z,0.10
2018-07-01T09:21:08.416Z,0.10
2018-07-01T09:23:37.499Z,0.20
2018-07-01T09:26:06.563Z,0.10
2018-07-01T09:28:35.608Z,0.10
2018-07-01T09:31:04.676Z,0.17
2018-07-01T09:33:33.804Z,0.10
2018-07-01T09:36:02.939Z,0.10
2018-07-01T09:38:31.727Z,0.10
2018-07-01T09:41:00.731Z,0.13
2018-07-01T09:43:29.857Z,0.10
2018-07-01T09:45:58.841Z,0.10
2018-07-01T09:48:27.505Z,0.20
2018-07-01T09:50:57.156Z,0.10
2018-07-01T09:53:26.208Z,0.10
2018-07-01T09:55:55.031Z,0.20
2018-07-01T09:58:23.955Z,0.10
2018-07-01T10:00:53.040Z,0.17
2018-07-01T10:03:22.084Z,0.20
2018-07-01T10:05:50.902Z,0.17
2018-07-01T10:08:19.823Z,0.10
2018-07-01T10:10:48.901Z,0.10
2018-07-01T10:13:17.943Z,0.20
2018-07-01T10:15:47.020Z,0.10
2018-07-01T10:18:16.064Z,0.10
2018-07-01T10:20:45.132Z,0.10
2018-07-01T10:23:13.971Z,0.10
2018-07-01T10:25:42.928Z,0.10
2018-07-01T10:28:12.148Z,0.10
2018-07-01T10:30:41.282Z,0.10
2018-07-01T10:33:10.324Z,0.17
2018-07-01T10:35:39.391Z,0.10
2018-07-01T10:38:08.440Z,0.00
2018-07-01T10:40:37.499Z,0.10
2018-07-01T10:43:06.311Z,0.10
2018-07-01T10:45:35.060Z,0.10
2018-07-01T10:48:04.047Z,0.10
2018-07-01T10:50:33.116Z,0.03
2018-07-01T10:53:02.160Z,0.10
2018-07-01T10:55:30.978Z,0.10
2018-07-01T10:57:59.639Z,0.00
2018-07-01T11:00:28.584Z,0.00
2018-07-01T11:02:57.862Z,0.07
2018-07-01T11:05:26.963Z,0.10
2018-07-01T11:07:56.259Z,0.00
2018-07-01T11:10:25.484Z,0.10
2018-07-01T11:12:54.684Z,0.10
2018-07-01T11:15:23.807Z,0.10
2018-07-01T11:17:52.851Z,0.00
2018-07-01T11:20:21.969Z,0.20
2018-07-01T11:22:50.983Z,0.10
2018-07-01T11:25:20.053Z,0.10
2018-07-01T11:27:49.100Z,0.00
2018-07-01T11:30:17.911Z,0.10
2018-07-01T11:32:47.751Z,0.00
2018-07-01T11:35:16.836Z,0.10
2018-07-01T11:37:45.871Z,0.10
2018-07-01T11:40:14.926Z,0.10
2018-07-01T11:42:43.992Z,0.10
2018-07-01T11:45:12.787Z,0.10
2018-07-01T11:47:41.723Z,0.20
2018-07-01T11:50:10.763Z,0.10
2018-07-01T11:52:39.580Z,0.10
2018-07-01T11:55:08.275Z,0.00
2018-07-01T11:57:37.700Z,0.03
2018-07-01T12:00:07.108Z,0.10
2018-07-01T12:02:36.176Z,0.17
2018-07-01T12:05:16.661Z,0.10
2018-07-01T12:07:34.700Z,0.10
2018-07-01T12:10:03.775Z,0.00
2018-07-01T12:12:32.835Z,0.20
2018-07-01T12:15:01.652Z,0.10
2018-07-01T12:17:30.591Z,0.17
2018-07-01T12:19:59.648Z,0.10
2018-07-01T12:22:28.712Z,0.10
2018-07-01T12:24:57.503Z,0.20
2018-07-01T12:27:26.195Z,0.10
2018-07-01T12:29:55.164Z,0.10
2018-07-01T12:32:24.239Z,0.10
2018-07-01T12:34:53.417Z,0.10
2018-07-01T12:37:22.392Z,0.00
2018-07-01T12:39:51.436Z,0.00
2018-07-01T12:42:20.559Z,0.10
2018-07-01T12:44:49.564Z,0.10
2018-07-01T12:47:18.383Z,0.10
2018-07-01T12:49:47.305Z,0.00
2018-07-01T12:52:16.368Z,0.10
2018-07-01T12:54:45.416Z,0.20
2018-07-01T12:57:14.239Z,0.10
2018-07-01T12:59:42.911Z,0.10
2018-07-01T13:02:12.063Z,0.10
2018-07-01T13:04:41.104Z,0.10
2018-07-01T13:07:10.167Z,0.00
2018-07-01T13:09:39.099Z,0.00
2018-07-01T13:12:07.977Z,0.10
2018-07-01T13:14:37.492Z,0.10
2018-07-01T13:17:06.307Z,0.10
2018-07-01T13:19:35.227Z,0.10
2018-07-01T13:22:04.298Z,0.20
2018-07-01T13:24:33.342Z,0.05
2018-07-01T13:27:02.416Z,0.05
2018-07-01T13:29:31.589Z,0.00
2018-07-01T13:32:00.660Z,0.15
2018-07-01T13:34:29.704Z,0.10
2018-07-01T13:36:58.776Z,0.10
2018-07-01T13:39:27.825Z,0.10
2018-07-01T13:41:56.896Z,0.10
2018-07-01T13:44:25.940Z,0.30
2018-07-01T13:46:55.014Z,0.05
2018-07-01T13:49:24.055Z,0.10
2018-07-01T13:51:53.123Z,0.10
2018-07-01T13:54:22.176Z,0.10
2018-07-01T13:56:51.317Z,0.10
2018-07-01T13:59:20.319Z,0.10
2018-07-01T14:01:49.471Z,0.10
2018-07-01T14:04:18.460Z,0.10
2018-07-01T14:06:47.537Z,0.00
2018-07-01T14:09:16.588Z,0.00
2018-07-01T14:11:45.414Z,0.10
2018-07-01T14:14:14.348Z,0.10
2018-07-01T14:16:43.439Z,0.05
2018-07-01T14:19:12.496Z,0.10
2018-07-01T14:21:41.563Z,0.13
2018-07-01T14:24:10.863Z,0.20
2018-07-01T14:26:39.812Z,0.03
2018-07-01T14:29:08.859Z,0.10
2018-07-01T14:31:37.951Z,0.10
2018-07-01T14:34:06.750Z,0.03
2018-07-01T14:36:35.424Z,0.10
2018-07-01T14:39:08.647Z,0.10
2018-07-01T14:41:37.695Z,0.10
2018-07-01T14:44:06.784Z,0.10
2018-07-01T14:46:36.039Z,0.10
2018-07-01T14:49:05.348Z,0.10
2018-07-01T14:51:34.644Z,0.10
2018-07-01T14:54:03.764Z,0.00
2018-07-01T14:56:32.808Z,0.10
2018-07-01T14:59:01.871Z,0.10
2018-07-01T15:01:30.832Z,0.10
2018-07-01T15:03:59.904Z,0.10
2018-07-01T15:06:28.952Z,0.10
2018-07-01T15:08:58.028Z,0.10
2018-07-01T15:11:27.068Z,0.10
2018-07-01T15:13:55.879Z,0.10
2018-07-01T15:16:24.643Z,0.10
2018-07-01T15:18:53.563Z,0.10
2018-07-01T15:21:22.608Z,0.10
2018-07-01T15:23:51.671Z,0.10
2018-07-01T15:26:20.716Z,0.10
2018-07-01T15:28:49.780Z,0.10
2018-07-01T15:31:18.827Z,0.00
2018-07-01T15:33:48.347Z,0.10
2018-07-01T15:36:17.061Z,0.10
2018-07-01T15:38:45.999Z,0.10
2018-07-01T15:41:15.040Z,0.10
2018-07-01T15:43:44.100Z,0.10
2018-07-01T15:46:13.148Z,0.17
2018-07-01T15:48:42.212Z,0.13
2018-07-01T15:51:11.420Z,0.15
2018-07-01T15:53:40.484Z,0.10
2018-07-01T15:56:09.335Z,0.10
2018-07-01T15:58:38.428Z,0.10
2018-07-01T16:01:07.497Z,0.10
2018-07-01T16:03:36.563Z,0.10
2018-07-01T16:06:05.787Z,0.10
2018-07-01T16:08:34.851Z,0.10
2018-07-01T16:11:03.899Z,0.00
2018-07-01T16:13:32.966Z,0.10
2018-07-01T16:16:02.180Z,0.10
2018-07-01T16:18:31.248Z,0.10
2018-07-01T16:21:00.079Z,0.10
2018-07-01T16:23:29.023Z,0.10
2018-07-01T16:26:03.389Z,0.17
2018-07-01T16:28:37.733Z,0.10
2018-07-01T16:31:06.791Z,0.20
2018-07-01T16:33:35.888Z,0.10
2018-07-01T16:36:04.942Z,0.20
2018-07-01T16:38:34.008Z,0.10
2018-07-01T16:41:03.073Z,0.10
2018-07-01T16:43:32.147Z,0.20
2018-07-01T16:46:01.360Z,0.10
2018-07-01T16:48:30.054Z,0.20
2018-07-01T16:50:58.731Z,0.13
2018-07-01T16:53:27.423Z,0.10
2018-07-01T16:55:56.251Z,0.10
2018-07-01T16:58:25.216Z,0.10
2018-07-01T17:00:54.268Z,0.10
2018-07-01T17:03:23.340Z,0.10
2018-07-01T17:05:52.395Z,0.25
2018-07-01T17:08:21.464Z,0.20
2018-07-01T17:10:50.271Z,0.10
2018-07-01T17:13:19.244Z,0.28
2018-07-01T17:15:48.063Z,0.40
2018-07-01T17:18:16.751Z,0.50
2018-07-01T17:20:45.424Z,0.20
2018-07-01T17:23:14.119Z,0.10
2018-07-01T17:25:48.184Z,0.45
2018-07-01T17:28:17.260Z,0.40
2018-07-01T17:30:46.307Z,0.30
2018-07-01T17:33:20.703Z,0.20
2018-07-01T17:35:49.628Z,0.10
2018-07-01T17:38:18.699Z,0.20
2018-07-01T17:40:47.788Z,0.20
2018-07-01T17:43:16.867Z,0.20
2018-07-01T17:45:46.143Z,0.10
2018-07-01T17:48:15.363Z,0.20
2018-07-01T17:50:44.412Z,0.20
2018-07-01T17:53:18.919Z,0.10
2018-07-01T17:55:47.800Z,0.25
2018-07-01T17:58:16.615Z,0.10
2018-07-01T18:00:45.536Z,0.20
2018-07-01T18:03:14.604Z,0.20
2018-07-01T18:05:43.415Z,0.20
2018-07-01T18:08:12.091Z,0.10
2018-07-01T18:10:40.787Z,0.20
2018-07-01T18:13:09.451Z,0.10
2018-07-01T18:15:38.424Z,0.20
2018-07-01T18:18:07.472Z,0.20
2018-07-01T18:20:36.552Z,0.13
2018-07-01T18:23:35.844Z,0.10
2018-07-01T18:25:34.452Z,0.10
2018-07-01T18:28:15.018Z,0.10
2018-07-01T18:30:32.472Z,0.10
2018-07-01T18:33:01.588Z,0.20
2018-07-01T18:35:31.593Z,0.10
2018-07-01T18:38:00.648Z,0.20
2018-07-01T18:40:29.715Z,0.20
2018-07-01T18:42:58.526Z,0.17
2018-07-01T18:45:27.491Z,0.20
2018-07-01T18:47:56.855Z,0.10
2018-07-01T18:50:25.799Z,0.20
2018-07-01T18:52:54.603Z,0.10
2018-07-01T18:55:23.291Z,0.13
2018-07-01T18:57:51.959Z,0.20
2018-07-01T19:00:20.932Z,0.13
2018-07-01T19:02:49.983Z,0.30
2018-07-01T19:05:19.071Z,0.20
2018-07-01T19:07:48.112Z,0.20
2018-07-01T19:10:17.203Z,0.20
2018-07-01T19:12:46.279Z,0.20
2018-07-01T19:15:15.364Z,0.10
2018-07-01T19:17:44.411Z,0.20
2018-07-01T19:20:13.480Z,0.10
2018-07-01T19:22:42.643Z,0.10
2018-07-01T19:25:11.765Z,0.20
2018-07-01T19:27:40.822Z,0.20
2018-07-01T19:30:09.899Z,0.20
2018-07-01T19:32:38.949Z,0.10
2018-07-01T19:35:08.028Z,0.20
2018-07-01T19:37:37.071Z,0.20
2018-07-01T19:40:06.151Z,0.17
2018-07-01T19:42:35.241Z,0.10
2018-07-01T19:45:04.725Z,0.10
2018-07-01T19:47:33.771Z,0.20
2018-07-01T19:50:02.832Z,0.20
2018-07-01T19:52:31.886Z,0.17
2018-07-01T19:55:00.951Z,0.13
2018-07-01T19:57:30.064Z,0.20
2018-07-01T19:59:59.135Z,0.20
2018-07-01T20:02:28.179Z,0.20
2018-07-01T20:04:57.252Z,0.27
2018-07-01T20:07:26.121Z,0.30
2018-07-01T20:09:55.060Z,0.20
2018-07-01T20:12:24.111Z,0.30
2018-07-01T20:14:53.384Z,0.27
2018-07-01T20:17:22.415Z,0.10
2018-07-01T20:19:51.488Z,0.20
2018-07-01T20:22:20.532Z,0.20
2018-07-01T20:24:49.379Z,0.17
2018-07-01T20:27:18.304Z,0.20
2018-07-01T20:29:47.111Z,0.13
2018-07-01T20:32:15.782Z,0.43
2018-07-01T20:34:44.720Z,0.20
2018-07-01T20:37:13.763Z,0.30
2018-07-01T20:39:42.828Z,0.10
2018-07-01T20:42:11.875Z,0.20
2018-07-01T20:44:40.935Z,0.23
2018-07-01T20:47:09.980Z,0.30
2018-07-01T20:49:39.095Z,0.20
2018-07-01T20:52:08.144Z,0.20
2018-07-01T20:54:36.970Z,0.20
2018-07-01T20:57:05.892Z,0.10
2018-07-01T20:59:34.939Z,0.10
2018-07-01T21:02:04.012Z,0.10
2018-07-01T21:04:32.844Z,0.17
2018-07-01T21:07:01.784Z,0.10
2018-07-01T21:09:30.828Z,0.13
2018-07-01T21:11:59.895Z,0.50
2018-07-01T21:14:28.944Z,0.20
2018-07-01T21:16:58.040Z,0.30
2018-07-01T21:19:27.088Z,0.20
2018-07-01T21:21:56.111Z,0.30
2018-07-01T21:24:25.037Z,0.13
2018-07-01T21:26:54.104Z,0.20
2018-07-01T21:29:23.151Z,0.20
2018-07-01T21:31:52.223Z,0.20
2018-07-01T21:34:21.319Z,0.20
2018-07-01T21:36:50.613Z,0.30
2018-07-01T21:39:19.423Z,0.20
2018-07-01T21:41:48.383Z,0.20
2018-07-01T21:44:17.590Z,0.10
2018-07-01T21:46:46.656Z,0.10
2018-07-01T21:49:16.224Z,0.20
2018-07-01T21:51:45.315Z,0.13
2018-07-01T21:54:14.379Z,0.30
2018-07-01T21:56:43.471Z,0.20
2018-07-01T21:59:12.544Z,0.30
2018-07-01T22:01:41.612Z,0.20
2018-07-01T22:04:10.683Z,0.13
2018-07-01T22:06:45.323Z,0.20
2018-07-01T22:09:14.703Z,0.10
2018-07-01T22:12:01.123Z,0.30
2018-07-01T22:14:33.977Z,0.20
2018-07-01T22:17:03.688Z,0.20
2018-07-01T22:19:32.967Z,0.20
2018-07-01T22:22:02.396Z,0.20
2018-07-01T22:24:32.709Z,0.20
2018-07-01T22:27:01.820Z,0.30
2018-07-01T22:29:30.899Z,0.20
2018-07-01T22:31:59.992Z,0.40
2018-07-01T22:34:29.163Z,0.20
2018-07-01T22:36:58.260Z,0.13
2018-07-01T22:39:28.818Z,0.20
2018-07-01T22:41:59.056Z,0.20
2018-07-01T22:44:28.769Z,0.20
2018-07-01T22:46:57.855Z,0.20
2018-07-01T22:49:27.143Z,0.30
2018-07-01T22:51:56.232Z,0.20
2018-07-01T22:54:25.303Z,0.20
2018-07-01T22:56:54.399Z,0.20
2018-07-01T22:59:23.780Z,0.20
2018-07-01T23:01:58.235Z,0.40
2018-07-01T23:04:26.977Z,0.30
2018-07-01T23:06:56.068Z,0.23
2018-07-01T23:09:25.143Z,0.30
2018-07-01T23:11:54.235Z,0.20
2018-07-01T23:14:23.310Z,0.20
2018-07-01T23:16:52.499Z,0.20
2018-07-01T23:19:21.567Z,0.23
2018-07-01T23:21:50.648Z,0.30
2018-07-01T23:24:19.716Z,0.10
2018-07-01T23:26:48.811Z,0.20
2018-07-01T23:29:17.879Z,0.20
2018-07-01T23:31:46.971Z,0.20
2018-07-01T23:34:16.139Z,0.20
2018-07-01T23:36:45.224Z,0.20
2018-07-01T23:39:14.296Z,0.30
2018-07-01T23:41:43.372Z,0.30
2018-07-01T23:44:12.431Z,0.40
2018-07-01T23:46:41.623Z,0.23
2018-07-01T23:49:10.691Z,0.23
2018-07-01T23:51:39.784Z,0.20
2018-07-01T23:54:08.844Z,0.30
2018-07-01T23:56:37.932Z,0.27
2018-07-01T23:59:07.004Z,0.67
